KDUA/DUA METAR and TAF weather

Enter ICAO airport designator
Station Type Date Time Source
KDUA METAR 2019/12/12 12:00 UTC NOAA

KDUA 121200Z AUTO 13004KT 10SM CLR 00/M01 A3035 RMK AO2


Station Type Date Time Source
KDUA Decoded METAR 2019/12/12 12:00 UTC NOAA

Durant, Eaker Field Airport, OK, United States (KDUA) 33-56-32N 096-23-40W
Dec 12, 2019 - 07:00 AM EST / 2019.12.12 1200 UTC
Wind: from the SE (130 degrees) at 5 MPH (4 KT):0
Visibility: 10 mile(s):0
Sky conditions: clear
Temperature: 32 F (0 C)
Windchill: 26 F (-3 C):1
Dew Point: 30 F (-1 C)
Relative Humidity: 92%
Pressure (altimeter): 30.35 in. Hg (1027 hPa)
ob: KDUA 121200Z AUTO 13004KT 10SM CLR 00/M01 A3035 RMK AO2
cycle: 12

Station Type Date Time Source
KDUA TAF UTC NOAA

Error!

Example: see airport list